LFML 211130Z AUTO 34010KT CAVOK 09/M00 Q1023 NOSIG

ElémentsDécodage
LFML Station météo située sur l'aérodrome de MARSEILLE PROVENCE
211130Z émis le 21 du mois à 11h30 UTC
AUTO Bulletin édité par un automate
34010KT vent du 340°, 10 noeuds
CAVOK Ceiling And Visibility OK
- Visibilité de 10 Km ou plus
- Pas de nuage au-dessous de 1500m ou au-dessous de l'altitude minimale du secteur la plus élevée (si>1500m) et absence de CB
- pas de temps présent significatif
09/M00 température 09°C, point de rosée 00°C
 soit une humidité relative de 53%
Q1023 la pression au niveau de la mer (QNH) est de 1023 hPa
NOSIG Pas de changement significatif prévu au cours des deux heures suivant l'heure de l'observation